sensor_id;sensor_type;location;lat;lon;timestamp;P1;durP1;ratioP1;P2;durP2;ratioP2
15218;SDS011;15623;53.986;11.676;2022-11-14T00:00:42;34.40;;;24.33;;
15218;SDS011;15623;53.986;11.676;2022-11-14T00:03:10;36.50;;;24.33;;
15218;SDS011;15623;53.986;11.676;2022-11-14T00:05:38;38.60;;;25.53;;
15218;SDS011;15623;53.986;11.676;2022-11-14T00:08:08;36.73;;;24.97;;
15218;SDS011;15623;53.986;11.676;2022-11-14T00:10:40;35.43;;;24.73;;
15218;SDS011;15623;53.986;11.676;2022-11-14T00:13:08;35.90;;;24.63;;
15218;SDS011;15623;53.986;11.676;2022-11-14T00:15:36;34.83;;;24.33;;
15218;SDS011;15623;53.986;11.676;2022-11-14T00:18:03;34.60;;;24.10;;
15218;SDS011;15623;53.986;11.676;2022-11-14T00:20:30;36.87;;;25.53;;
15218;SDS011;15623;53.986;11.676;2022-11-14T00:22:58;35.13;;;25.13;;
15218;SDS011;15623;53.986;11.676;2022-11-14T00:25:27;38.43;;;24.73;;
15218;SDS011;15623;53.986;11.676;2022-11-14T00:27:55;39.30;;;26.67;;
15218;SDS011;15623;53.986;11.676;2022-11-14T00:30:23;36.20;;;25.30;;
15218;SDS011;15623;53.986;11.676;2022-11-14T00:32:50;33.63;;;24.83;;
15218;SDS011;15623;53.986;11.676;2022-11-14T00:35:18;36.50;;;25.30;;
15218;SDS011;15623;53.986;11.676;2022-11-14T00:37:49;35.20;;;24.97;;
15218;SDS011;15623;53.986;11.676;2022-11-14T00:40:20;37.57;;;24.97;;
15218;SDS011;15623;53.986;11.676;2022-11-14T00:42:50;33.87;;;24.37;;
15218;SDS011;15623;53.986;11.676;2022-11-14T00:45:17;37.13;;;25.03;;
15218;SDS011;15623;53.986;11.676;2022-11-14T00:47:45;35.10;;;24.60;;
15218;SDS011;15623;53.986;11.676;2022-11-14T00:50:12;36.03;;;24.07;;
15218;SDS011;15623;53.986;11.676;2022-11-14T00:52:45;36.93;;;24.17;;
15218;SDS011;15623;53.986;11.676;2022-11-14T00:55:12;33.50;;;24.37;;
15218;SDS011;15623;53.986;11.676;2022-11-14T00:57:40;36.33;;;24.97;;
15218;SDS011;15623;53.986;11.676;2022-11-14T01:00:10;34.03;;;24.40;;
15218;SDS011;15623;53.986;11.676;2022-11-14T01:02:39;34.93;;;25.17;;
15218;SDS011;15623;53.986;11.676;2022-11-14T01:05:21;34.23;;;24.20;;
15218;SDS011;15623;53.986;11.676;2022-11-14T01:07:48;37.70;;;25.03;;
15218;SDS011;15623;53.986;11.676;2022-11-14T01:10:17;33.93;;;24.37;;
15218;SDS011;15623;53.986;11.676;2022-11-14T01:12:45;35.53;;;24.70;;
15218;SDS011;15623;53.986;11.676;2022-11-14T01:15:14;34.33;;;24.17;;
15218;SDS011;15623;53.986;11.676;2022-11-14T01:17:44;30.33;;;23.20;;
15218;SDS011;15623;53.986;11.676;2022-11-14T01:20:11;33.60;;;24.93;;
15218;SDS011;15623;53.986;11.676;2022-11-14T01:22:39;32.37;;;24.63;;
15218;SDS011;15623;53.986;11.676;2022-11-14T01:25:06;32.97;;;24.03;;
15218;SDS011;15623;53.986;11.676;2022-11-14T01:27:34;31.77;;;23.17;;
15218;SDS011;15623;53.986;11.676;2022-11-14T01:30:01;33.10;;;24.27;;
15218;SDS011;15623;53.986;11.676;2022-11-14T01:32:38;31.53;;;23.57;;
15218;SDS011;15623;53.986;11.676;2022-11-14T01:35:26;31.90;;;23.17;;
15218;SDS011;15623;53.986;11.676;2022-11-14T01:37:56;30.30;;;23.53;;
15218;SDS011;15623;53.986;11.676;2022-11-14T01:40:25;31.50;;;23.10;;
15218;SDS011;15623;53.986;11.676;2022-11-14T01:43:20;33.37;;;24.47;;
15218;SDS011;15623;53.986;11.676;2022-11-14T01:45:50;32.57;;;23.57;;
15218;SDS011;15623;53.986;11.676;2022-11-14T01:48:19;31.87;;;24.10;;
15218;SDS011;15623;53.986;11.676;2022-11-14T01:50:47;31.93;;;23.47;;
15218;SDS011;15623;53.986;11.676;2022-11-14T01:53:16;30.87;;;23.50;;
15218;SDS011;15623;53.986;11.676;2022-11-14T01:55:44;29.80;;;22.47;;
15218;SDS011;15623;53.986;11.676;2022-11-14T01:58:11;30.37;;;23.43;;
15218;SDS011;15623;53.986;11.676;2022-11-14T02:00:39;28.17;;;22.83;;
15218;SDS011;15623;53.986;11.676;2022-11-14T02:03:12;31.20;;;23.57;;
15218;SDS011;15623;53.986;11.676;2022-11-14T02:05:41;34.63;;;23.40;;
15218;SDS011;15623;53.986;11.676;2022-11-14T02:08:11;27.97;;;23.37;;
15218;SDS011;15623;53.986;11.676;2022-11-14T02:10:40;31.03;;;22.67;;
15218;SDS011;15623;53.986;11.676;2022-11-14T02:13:07;32.60;;;23.73;;
15218;SDS011;15623;53.986;11.676;2022-11-14T02:15:35;32.90;;;23.97;;
15218;SDS011;15623;53.986;11.676;2022-11-14T02:18:04;32.27;;;23.97;;
15218;SDS011;15623;53.986;11.676;2022-11-14T02:20:34;29.77;;;23.23;;
15218;SDS011;15623;53.986;11.676;2022-11-14T02:23:02;30.40;;;23.90;;
15218;SDS011;15623;53.986;11.676;2022-11-14T02:25:31;29.37;;;22.97;;
15218;SDS011;15623;53.986;11.676;2022-11-14T02:27:58;34.13;;;22.70;;
15218;SDS011;15623;53.986;11.676;2022-11-14T02:30:27;33.10;;;23.53;;
15218;SDS011;15623;53.986;11.676;2022-11-14T02:33:00;30.00;;;23.63;;
15218;SDS011;15623;53.986;11.676;2022-11-14T02:35:36;31.87;;;23.63;;
15218;SDS011;15623;53.986;11.676;2022-11-14T02:38:04;32.30;;;23.83;;
15218;SDS011;15623;53.986;11.676;2022-11-14T02:40:32;33.17;;;23.83;;
15218;SDS011;15623;53.986;11.676;2022-11-14T02:43:00;32.17;;;24.17;;
15218;SDS011;15623;53.986;11.676;2022-11-14T02:45:27;33.67;;;24.37;;
15218;SDS011;15623;53.986;11.676;2022-11-14T02:47:54;34.50;;;24.20;;
15218;SDS011;15623;53.986;11.676;2022-11-14T02:50:22;37.97;;;26.03;;
15218;SDS011;15623;53.986;11.676;2022-11-14T02:52:51;35.00;;;24.13;;
15218;SDS011;15623;53.986;11.676;2022-11-14T02:55:20;37.90;;;25.73;;
15218;SDS011;15623;53.986;11.676;2022-11-14T02:57:47;38.20;;;25.83;;
15218;SDS011;15623;53.986;11.676;2022-11-14T03:00:15;38.40;;;26.90;;
15218;SDS011;15623;53.986;11.676;2022-11-14T03:02:43;37.03;;;24.43;;
15218;SDS011;15623;53.986;11.676;2022-11-14T03:05:28;38.20;;;25.13;;
15218;SDS011;15623;53.986;11.676;2022-11-14T03:07:57;36.47;;;24.70;;
15218;SDS011;15623;53.986;11.676;2022-11-14T03:10:25;36.47;;;25.90;;
15218;SDS011;15623;53.986;11.676;2022-11-14T03:12:52;37.23;;;25.73;;
15218;SDS011;15623;53.986;11.676;2022-11-14T03:15:20;38.73;;;26.60;;
15218;SDS011;15623;53.986;11.676;2022-11-14T03:17:47;39.73;;;26.87;;
15218;SDS011;15623;53.986;11.676;2022-11-14T03:20:15;39.47;;;25.77;;
15218;SDS011;15623;53.986;11.676;2022-11-14T03:22:42;39.50;;;26.10;;
15218;SDS011;15623;53.986;11.676;2022-11-14T03:25:11;41.00;;;27.13;;
15218;SDS011;15623;53.986;11.676;2022-11-14T03:27:38;39.17;;;27.17;;
15218;SDS011;15623;53.986;11.676;2022-11-14T03:30:06;40.40;;;26.93;;
15218;SDS011;15623;53.986;11.676;2022-11-14T03:32:34;42.00;;;27.37;;
15218;SDS011;15623;53.986;11.676;2022-11-14T03:35:01;42.60;;;27.77;;
15218;SDS011;15623;53.986;11.676;2022-11-14T03:37:29;40.17;;;25.77;;
15218;SDS011;15623;53.986;11.676;2022-11-14T03:39:56;42.73;;;27.17;;
15218;SDS011;15623;53.986;11.676;2022-11-14T03:42:25;40.53;;;26.63;;
15218;SDS011;15623;53.986;11.676;2022-11-14T03:44:52;40.97;;;26.53;;
15218;SDS011;15623;53.986;11.676;2022-11-14T03:47:19;45.00;;;26.60;;
15218;SDS011;15623;53.986;11.676;2022-11-14T03:49:47;45.63;;;27.47;;
15218;SDS011;15623;53.986;11.676;2022-11-14T03:52:14;46.00;;;27.20;;
15218;SDS011;15623;53.986;11.676;2022-11-14T03:54:42;42.63;;;26.97;;
15218;SDS011;15623;53.986;11.676;2022-11-14T03:57:09;46.30;;;27.60;;
15218;SDS011;15623;53.986;11.676;2022-11-14T04:02:40;43.70;;;26.67;;
15218;SDS011;15623;53.986;11.676;2022-11-14T04:05:08;46.87;;;27.50;;
15218;SDS011;15623;53.986;11.676;2022-11-14T04:07:35;46.00;;;27.50;;
15218;SDS011;15623;53.986;11.676;2022-11-14T04:10:03;48.53;;;27.17;;
15218;SDS011;15623;53.986;11.676;2022-11-14T04:12:31;45.60;;;26.53;;
15218;SDS011;15623;53.986;11.676;2022-11-14T04:14:58;44.93;;;27.23;;
15218;SDS011;15623;53.986;11.676;2022-11-14T04:17:26;46.70;;;25.67;;
15218;SDS011;15623;53.986;11.676;2022-11-14T04:19:54;42.63;;;26.60;;
15218;SDS011;15623;53.986;11.676;2022-11-14T04:22:22;48.53;;;26.53;;
15218;SDS011;15623;53.986;11.676;2022-11-14T04:24:49;44.33;;;25.90;;
15218;SDS011;15623;53.986;11.676;2022-11-14T04:27:17;45.50;;;25.93;;
15218;SDS011;15623;53.986;11.676;2022-11-14T04:29:44;47.03;;;27.47;;
15218;SDS011;15623;53.986;11.676;2022-11-14T04:32:11;44.73;;;27.07;;
15218;SDS011;15623;53.986;11.676;2022-11-14T04:34:39;43.40;;;25.57;;
15218;SDS011;15623;53.986;11.676;2022-11-14T04:37:08;41.63;;;25.60;;
15218;SDS011;15623;53.986;11.676;2022-11-14T04:39:35;44.53;;;26.60;;
15218;SDS011;15623;53.986;11.676;2022-11-14T04:42:02;47.57;;;26.57;;
15218;SDS011;15623;53.986;11.676;2022-11-14T04:44:30;47.90;;;25.93;;
15218;SDS011;15623;53.986;11.676;2022-11-14T04:47:00;45.23;;;25.50;;
15218;SDS011;15623;53.986;11.676;2022-11-14T04:49:31;52.83;;;27.67;;
15218;SDS011;15623;53.986;11.676;2022-11-14T04:52:15;47.43;;;25.43;;
15218;SDS011;15623;53.986;11.676;2022-11-14T04:54:42;48.80;;;26.70;;
15218;SDS011;15623;53.986;11.676;2022-11-14T04:57:09;52.67;;;27.77;;
15218;SDS011;15623;53.986;11.676;2022-11-14T04:59:37;52.70;;;26.80;;
15218;SDS011;15623;53.986;11.676;2022-11-14T05:02:04;54.40;;;27.70;;
15218;SDS011;15623;53.986;11.676;2022-11-14T05:04:32;56.37;;;28.23;;
15218;SDS011;15623;53.986;11.676;2022-11-14T05:06:59;56.97;;;29.03;;
15218;SDS011;15623;53.986;11.676;2022-11-14T05:09:28;59.03;;;28.37;;
15218;SDS011;15623;53.986;11.676;2022-11-14T05:11:55;57.47;;;28.93;;
15218;SDS011;15623;53.986;11.676;2022-11-14T05:14:24;60.13;;;30.00;;
15218;SDS011;15623;53.986;11.676;2022-11-14T05:17:09;61.73;;;29.53;;
15218;SDS011;15623;53.986;11.676;2022-11-14T05:19:52;61.70;;;30.60;;
15218;SDS011;15623;53.986;11.676;2022-11-14T05:22:27;64.03;;;30.20;;
15218;SDS011;15623;53.986;11.676;2022-11-14T05:24:58;62.17;;;30.20;;
15218;SDS011;15623;53.986;11.676;2022-11-14T05:27:27;61.60;;;30.37;;
15218;SDS011;15623;53.986;11.676;2022-11-14T05:29:55;64.83;;;31.57;;
15218;SDS011;15623;53.986;11.676;2022-11-14T05:32:33;65.77;;;32.30;;
15218;SDS011;15623;53.986;11.676;2022-11-14T05:35:20;71.77;;;33.70;;
15218;SDS011;15623;53.986;11.676;2022-11-14T05:37:59;74.43;;;34.23;;
15218;SDS011;15623;53.986;11.676;2022-11-14T05:44:08;80.10;;;35.20;;
15218;SDS011;15623;53.986;11.676;2022-11-14T05:46:36;78.17;;;34.07;;
15218;SDS011;15623;53.986;11.676;2022-11-14T05:51:39;80.00;;;35.63;;
15218;SDS011;15623;53.986;11.676;2022-11-14T05:54:12;84.60;;;37.00;;
15218;SDS011;15623;53.986;11.676;2022-11-14T05:56:44;86.17;;;37.60;;
15218;SDS011;15623;53.986;11.676;2022-11-14T05:59:15;91.07;;;38.03;;
15218;SDS011;15623;53.986;11.676;2022-11-14T06:01:46;84.40;;;37.50;;
15218;SDS011;15623;53.986;11.676;2022-11-14T06:04:14;88.97;;;37.50;;
15218;SDS011;15623;53.986;11.676;2022-11-14T06:06:41;90.97;;;38.10;;
15218;SDS011;15623;53.986;11.676;2022-11-14T06:09:10;93.30;;;38.87;;
15218;SDS011;15623;53.986;11.676;2022-11-14T06:11:37;92.97;;;37.93;;
15218;SDS011;15623;53.986;11.676;2022-11-14T06:14:10;92.20;;;39.77;;
15218;SDS011;15623;53.986;11.676;2022-11-14T06:16:53;97.70;;;39.10;;
15218;SDS011;15623;53.986;11.676;2022-11-14T06:19:21;97.37;;;39.40;;
15218;SDS011;15623;53.986;11.676;2022-11-14T06:21:48;101.50;;;40.77;;
15218;SDS011;15623;53.986;11.676;2022-11-14T06:24:16;99.70;;;41.23;;
15218;SDS011;15623;53.986;11.676;2022-11-14T06:29:49;112.00;;;42.17;;
15218;SDS011;15623;53.986;11.676;2022-11-14T06:35:32;108.10;;;42.20;;
15218;SDS011;15623;53.986;11.676;2022-11-14T06:38:15;108.97;;;42.50;;
15218;SDS011;15623;53.986;11.676;2022-11-14T06:40:44;115.73;;;43.60;;
15218;SDS011;15623;53.986;11.676;2022-11-14T06:43:15;107.90;;;42.40;;
15218;SDS011;15623;53.986;11.676;2022-11-14T06:45:44;118.70;;;43.17;;
15218;SDS011;15623;53.986;11.676;2022-11-14T06:48:19;114.97;;;42.77;;
15218;SDS011;15623;53.986;11.676;2022-11-14T06:51:02;112.63;;;43.10;;
15218;SDS011;15623;53.986;11.676;2022-11-14T06:53:40;112.00;;;43.70;;
15218;SDS011;15623;53.986;11.676;2022-11-14T06:56:09;122.50;;;45.90;;
15218;SDS011;15623;53.986;11.676;2022-11-14T06:58:38;114.70;;;42.77;;
15218;SDS011;15623;53.986;11.676;2022-11-14T07:01:06;120.23;;;42.47;;
15218;SDS011;15623;53.986;11.676;2022-11-14T07:03:42;115.50;;;42.57;;
15218;SDS011;15623;53.986;11.676;2022-11-14T07:06:12;118.40;;;44.60;;
15218;SDS011;15623;53.986;11.676;2022-11-14T07:08:40;126.43;;;44.73;;
15218;SDS011;15623;53.986;11.676;2022-11-14T07:11:09;116.13;;;43.40;;
15218;SDS011;15623;53.986;11.676;2022-11-14T07:13:37;114.47;;;42.83;;
15218;SDS011;15623;53.986;11.676;2022-11-14T07:16:09;114.17;;;42.63;;
15218;SDS011;15623;53.986;11.676;2022-11-14T07:21:35;115.03;;;42.37;;
15218;SDS011;15623;53.986;11.676;2022-11-14T07:24:03;107.67;;;41.60;;
15218;SDS011;15623;53.986;11.676;2022-11-14T07:26:33;109.03;;;40.50;;
15218;SDS011;15623;53.986;11.676;2022-11-14T07:29:01;104.47;;;40.67;;
15218;SDS011;15623;53.986;11.676;2022-11-14T07:31:31;107.23;;;39.83;;
15218;SDS011;15623;53.986;11.676;2022-11-14T07:38:57;105.10;;;41.77;;
15218;SDS011;15623;53.986;11.676;2022-11-14T07:41:34;105.20;;;40.67;;
15218;SDS011;15623;53.986;11.676;2022-11-14T07:44:30;100.80;;;39.50;;
15218;SDS011;15623;53.986;11.676;2022-11-14T07:49:39;100.03;;;39.23;;
15218;SDS011;15623;53.986;11.676;2022-11-14T07:52:21;92.97;;;38.80;;
15218;SDS011;15623;53.986;11.676;2022-11-14T07:55:08;97.43;;;39.07;;
15218;SDS011;15623;53.986;11.676;2022-11-14T07:57:53;93.73;;;40.10;;
15218;SDS011;15623;53.986;11.676;2022-11-14T08:00:22;89.83;;;37.90;;
15218;SDS011;15623;53.986;11.676;2022-11-14T08:02:51;86.43;;;36.63;;
15218;SDS011;15623;53.986;11.676;2022-11-14T08:05:19;96.60;;;39.37;;
15218;SDS011;15623;53.986;11.676;2022-11-14T08:07:55;91.63;;;38.37;;
15218;SDS011;15623;53.986;11.676;2022-11-14T08:10:26;91.57;;;38.77;;
15218;SDS011;15623;53.986;11.676;2022-11-14T08:16:31;87.73;;;38.10;;
15218;SDS011;15623;53.986;11.676;2022-11-14T08:18:58;86.27;;;38.07;;
15218;SDS011;15623;53.986;11.676;2022-11-14T08:21:26;87.73;;;37.50;;
15218;SDS011;15623;53.986;11.676;2022-11-14T08:23:53;82.33;;;37.43;;
15218;SDS011;15623;53.986;11.676;2022-11-14T08:26:22;76.10;;;35.60;;
15218;SDS011;15623;53.986;11.676;2022-11-14T08:28:51;85.33;;;37.43;;
15218;SDS011;15623;53.986;11.676;2022-11-14T08:31:19;81.50;;;36.47;;
15218;SDS011;15623;53.986;11.676;2022-11-14T08:33:46;81.70;;;37.23;;
15218;SDS011;15623;53.986;11.676;2022-11-14T08:36:16;86.20;;;37.37;;
15218;SDS011;15623;53.986;11.676;2022-11-14T08:38:44;75.83;;;35.47;;
15218;SDS011;15623;53.986;11.676;2022-11-14T08:41:11;74.57;;;34.23;;
15218;SDS011;15623;53.986;11.676;2022-11-14T08:43:40;78.90;;;36.17;;
15218;SDS011;15623;53.986;11.676;2022-11-14T08:46:08;79.30;;;36.23;;
15218;SDS011;15623;53.986;11.676;2022-11-14T08:48:35;78.37;;;36.00;;
15218;SDS011;15623;53.986;11.676;2022-11-14T08:51:05;67.37;;;33.00;;
15218;SDS011;15623;53.986;11.676;2022-11-14T08:53:34;66.73;;;32.30;;
15218;SDS011;15623;53.986;11.676;2022-11-14T08:56:01;66.27;;;31.80;;
15218;SDS011;15623;53.986;11.676;2022-11-14T08:58:29;62.30;;;31.70;;
15218;SDS011;15623;53.986;11.676;2022-11-14T09:01:01;61.93;;;32.43;;
15218;SDS011;15623;53.986;11.676;2022-11-14T09:03:29;64.73;;;31.67;;
15218;SDS011;15623;53.986;11.676;2022-11-14T09:05:59;61.33;;;30.17;;
15218;SDS011;15623;53.986;11.676;2022-11-14T09:08:26;60.80;;;31.77;;
15218;SDS011;15623;53.986;11.676;2022-11-14T09:10:58;59.50;;;31.07;;
15218;SDS011;15623;53.986;11.676;2022-11-14T09:13:26;61.13;;;31.37;;
15218;SDS011;15623;53.986;11.676;2022-11-14T09:19:16;57.07;;;30.73;;
15218;SDS011;15623;53.986;11.676;2022-11-14T09:21:49;61.50;;;30.80;;
15218;SDS011;15623;53.986;11.676;2022-11-14T09:24:19;56.27;;;29.53;;
15218;SDS011;15623;53.986;11.676;2022-11-14T09:26:46;56.93;;;29.03;;
15218;SDS011;15623;53.986;11.676;2022-11-14T09:35:17;56.37;;;30.10;;
15218;SDS011;15623;53.986;11.676;2022-11-14T09:37:44;54.57;;;29.63;;
15218;SDS011;15623;53.986;11.676;2022-11-14T09:40:26;52.00;;;28.27;;
15218;SDS011;15623;53.986;11.676;2022-11-14T09:43:07;57.17;;;30.83;;
15218;SDS011;15623;53.986;11.676;2022-11-14T09:45:52;55.37;;;29.90;;
15218;SDS011;15623;53.986;11.676;2022-11-14T09:48:24;58.43;;;30.27;;
15218;SDS011;15623;53.986;11.676;2022-11-14T09:51:14;56.07;;;29.23;;
15218;SDS011;15623;53.986;11.676;2022-11-14T09:54:02;56.60;;;29.53;;
15218;SDS011;15623;53.986;11.676;2022-11-14T09:56:35;53.43;;;29.03;;
15218;SDS011;15623;53.986;11.676;2022-11-14T09:59:02;53.20;;;29.57;;
15218;SDS011;15623;53.986;11.676;2022-11-14T10:01:37;52.60;;;29.17;;
15218;SDS011;15623;53.986;11.676;2022-11-14T10:04:19;53.67;;;29.13;;
15218;SDS011;15623;53.986;11.676;2022-11-14T10:07:22;52.40;;;28.47;;
15218;SDS011;15623;53.986;11.676;2022-11-14T10:09:54;48.33;;;27.13;;
15218;SDS011;15623;53.986;11.676;2022-11-14T10:12:46;50.07;;;28.87;;
15218;SDS011;15623;53.986;11.676;2022-11-14T10:15:19;50.97;;;28.60;;
15218;SDS011;15623;53.986;11.676;2022-11-14T10:17:55;53.47;;;28.27;;
15218;SDS011;15623;53.986;11.676;2022-11-14T10:20:26;46.83;;;27.25;;
15218;SDS011;15623;53.986;11.676;2022-11-14T10:23:19;51.30;;;29.10;;
15218;SDS011;15623;53.986;11.676;2022-11-14T10:25:52;51.20;;;28.37;;
15218;SDS011;15623;53.986;11.676;2022-11-14T10:29:28;50.60;;;27.90;;
15218;SDS011;15623;53.986;11.676;2022-11-14T10:32:00;50.77;;;28.23;;
15218;SDS011;15623;53.986;11.676;2022-11-14T10:34:32;48.83;;;27.97;;
15218;SDS011;15623;53.986;11.676;2022-11-14T10:37:21;48.63;;;28.40;;
15218;SDS011;15623;53.986;11.676;2022-11-14T10:40:28;51.47;;;27.35;;
15218;SDS011;15623;53.986;11.676;2022-11-14T10:43:25;49.45;;;28.60;;
15218;SDS011;15623;53.986;11.676;2022-11-14T10:45:56;47.63;;;27.48;;
15218;SDS011;15623;53.986;11.676;2022-11-14T10:48:28;50.00;;;28.03;;
15218;SDS011;15623;53.986;11.676;2022-11-14T10:51:07;51.47;;;27.52;;
15218;SDS011;15623;53.986;11.676;2022-11-14T10:56:30;49.28;;;26.77;;
15218;SDS011;15623;53.986;11.676;2022-11-14T10:59:15;48.60;;;28.10;;
15218;SDS011;15623;53.986;11.676;2022-11-14T11:01:44;51.87;;;29.40;;
15218;SDS011;15623;53.986;11.676;2022-11-14T11:04:21;54.93;;;28.67;;
15218;SDS011;15623;53.986;11.676;2022-11-14T11:06:52;49.10;;;27.90;;
15218;SDS011;15623;53.986;11.676;2022-11-14T11:09:20;48.80;;;28.40;;
15218;SDS011;15623;53.986;11.676;2022-11-14T11:12:08;49.53;;;27.60;;
15218;SDS011;15623;53.986;11.676;2022-11-14T11:14:41;50.25;;;27.23;;
15218;SDS011;15623;53.986;11.676;2022-11-14T11:17:18;49.38;;;28.27;;
15218;SDS011;15623;53.986;11.676;2022-11-14T11:19:46;46.28;;;27.02;;
15218;SDS011;15623;53.986;11.676;2022-11-14T11:22:24;48.40;;;28.42;;
15218;SDS011;15623;53.986;11.676;2022-11-14T11:24:52;47.25;;;27.85;;
15218;SDS011;15623;53.986;11.676;2022-11-14T11:27:21;48.90;;;27.95;;
15218;SDS011;15623;53.986;11.676;2022-11-14T11:30:00;46.92;;;28.33;;
15218;SDS011;15623;53.986;11.676;2022-11-14T11:32:28;47.00;;;27.45;;
15218;SDS011;15623;53.986;11.676;2022-11-14T11:34:56;45.55;;;27.85;;
15218;SDS011;15623;53.986;11.676;2022-11-14T11:37:29;45.40;;;27.88;;
15218;SDS011;15623;53.986;11.676;2022-11-14T11:40:05;47.08;;;26.25;;
15218;SDS011;15623;53.986;11.676;2022-11-14T11:45:42;45.47;;;26.80;;
15218;SDS011;15623;53.986;11.676;2022-11-14T11:48:12;48.45;;;27.05;;
15218;SDS011;15623;53.986;11.676;2022-11-14T11:50:41;46.60;;;26.57;;
15218;SDS011;15623;53.986;11.676;2022-11-14T11:53:27;47.40;;;26.15;;
15218;SDS011;15623;53.986;11.676;2022-11-14T11:55:58;45.17;;;26.40;;
15218;SDS011;15623;53.986;11.676;2022-11-14T12:01:45;45.35;;;26.95;;
15218;SDS011;15623;53.986;11.676;2022-11-14T12:04:17;46.70;;;27.13;;
15218;SDS011;15623;53.986;11.676;2022-11-14T12:06:47;44.95;;;26.80;;
15218;SDS011;15623;53.986;11.676;2022-11-14T12:09:19;45.60;;;26.20;;
15218;SDS011;15623;53.986;11.676;2022-11-14T12:15:06;47.95;;;27.48;;
15218;SDS011;15623;53.986;11.676;2022-11-14T12:20:39;50.93;;;27.50;;
15218;SDS011;15623;53.986;11.676;2022-11-14T12:26:01;50.17;;;27.17;;
15218;SDS011;15623;53.986;11.676;2022-11-14T12:28:40;48.17;;;26.57;;
15218;SDS011;15623;53.986;11.676;2022-11-14T12:31:12;51.87;;;28.10;;
15218;SDS011;15623;53.986;11.676;2022-11-14T12:33:42;48.53;;;27.83;;
15218;SDS011;15623;53.986;11.676;2022-11-14T12:36:11;54.23;;;28.20;;
15218;SDS011;15623;53.986;11.676;2022-11-14T12:38:40;49.77;;;27.37;;
15218;SDS011;15623;53.986;11.676;2022-11-14T12:41:09;54.57;;;28.43;;
15218;SDS011;15623;53.986;11.676;2022-11-14T12:43:38;49.07;;;27.87;;
15218;SDS011;15623;53.986;11.676;2022-11-14T12:46:07;53.37;;;26.97;;
15218;SDS011;15623;53.986;11.676;2022-11-14T12:48:59;51.37;;;27.97;;
15218;SDS011;15623;53.986;11.676;2022-11-14T12:57:21;53.30;;;27.63;;
15218;SDS011;15623;53.986;11.676;2022-11-14T13:00:08;54.13;;;28.40;;
15218;SDS011;15623;53.986;11.676;2022-11-14T13:08:04;55.60;;;28.53;;
15218;SDS011;15623;53.986;11.676;2022-11-14T13:10:36;56.97;;;30.00;;
15218;SDS011;15623;53.986;11.676;2022-11-14T13:13:11;53.17;;;27.57;;
15218;SDS011;15623;53.986;11.676;2022-11-14T13:18:50;55.40;;;29.37;;
15218;SDS011;15623;53.986;11.676;2022-11-14T13:21:36;55.67;;;29.37;;
15218;SDS011;15623;53.986;11.676;2022-11-14T13:24:13;56.10;;;29.90;;
15218;SDS011;15623;53.986;11.676;2022-11-14T13:26:45;59.47;;;29.93;;
15218;SDS011;15623;53.986;11.676;2022-11-14T13:35:03;57.67;;;30.07;;
15218;SDS011;15623;53.986;11.676;2022-11-14T13:37:36;57.50;;;29.30;;
15218;SDS011;15623;53.986;11.676;2022-11-14T13:40:19;60.53;;;30.70;;
15218;SDS011;15623;53.986;11.676;2022-11-14T13:42:48;60.13;;;30.20;;
15218;SDS011;15623;53.986;11.676;2022-11-14T13:45:30;56.47;;;29.83;;
15218;SDS011;15623;53.986;11.676;2022-11-14T13:50:54;60.00;;;30.77;;
15218;SDS011;15623;53.986;11.676;2022-11-14T13:53:23;61.67;;;31.33;;
15218;SDS011;15623;53.986;11.676;2022-11-14T13:55:58;62.67;;;31.53;;
15218;SDS011;15623;53.986;11.676;2022-11-14T14:01:32;64.43;;;31.87;;
15218;SDS011;15623;53.986;11.676;2022-11-14T14:04:39;67.17;;;33.00;;
15218;SDS011;15623;53.986;11.676;2022-11-14T14:10:08;68.00;;;32.80;;
15218;SDS011;15623;53.986;11.676;2022-11-14T14:12:45;65.97;;;32.83;;
15218;SDS011;15623;53.986;11.676;2022-11-14T14:15:18;70.50;;;33.23;;
15218;SDS011;15623;53.986;11.676;2022-11-14T14:17:55;71.00;;;32.60;;
15218;SDS011;15623;53.986;11.676;2022-11-14T14:20:30;69.00;;;33.90;;
15218;SDS011;15623;53.986;11.676;2022-11-14T14:23:00;77.67;;;35.07;;
15218;SDS011;15623;53.986;11.676;2022-11-14T14:25:36;67.10;;;32.97;;
15218;SDS011;15623;53.986;11.676;2022-11-14T14:28:08;72.73;;;34.73;;
15218;SDS011;15623;53.986;11.676;2022-11-14T14:30:59;76.80;;;34.47;;
15218;SDS011;15623;53.986;11.676;2022-11-14T14:33:27;69.67;;;33.77;;
15218;SDS011;15623;53.986;11.676;2022-11-14T14:35:57;77.13;;;35.30;;
15218;SDS011;15623;53.986;11.676;2022-11-14T14:38:26;74.93;;;35.77;;
15218;SDS011;15623;53.986;11.676;2022-11-14T14:40:56;71.90;;;33.97;;
15218;SDS011;15623;53.986;11.676;2022-11-14T14:43:27;80.53;;;36.47;;
15218;SDS011;15623;53.986;11.676;2022-11-14T14:45:54;93.27;;;36.50;;
15218;SDS011;15623;53.986;11.676;2022-11-14T14:48:22;71.47;;;35.13;;
15218;SDS011;15623;53.986;11.676;2022-11-14T14:50:51;93.47;;;37.13;;
15218;SDS011;15623;53.986;11.676;2022-11-14T14:53:20;98.60;;;37.90;;
15218;SDS011;15623;53.986;11.676;2022-11-14T14:55:52;81.73;;;36.93;;
15218;SDS011;15623;53.986;11.676;2022-11-14T14:58:25;78.93;;;35.70;;
15218;SDS011;15623;53.986;11.676;2022-11-14T15:00:54;77.63;;;35.93;;
15218;SDS011;15623;53.986;11.676;2022-11-14T15:03:24;76.73;;;35.63;;
15218;SDS011;15623;53.986;11.676;2022-11-14T15:06:02;83.77;;;38.07;;
15218;SDS011;15623;53.986;11.676;2022-11-14T15:08:30;83.13;;;38.17;;
15218;SDS011;15623;53.986;11.676;2022-11-14T15:11:01;82.90;;;37.17;;
15218;SDS011;15623;53.986;11.676;2022-11-14T15:13:30;83.17;;;37.00;;
15218;SDS011;15623;53.986;11.676;2022-11-14T15:15:58;91.63;;;40.63;;
15218;SDS011;15623;53.986;11.676;2022-11-14T15:18:27;90.67;;;37.90;;
15218;SDS011;15623;53.986;11.676;2022-11-14T15:21:05;86.53;;;38.70;;
15218;SDS011;15623;53.986;11.676;2022-11-14T15:23:33;96.27;;;38.93;;
15218;SDS011;15623;53.986;11.676;2022-11-14T15:26:01;87.93;;;37.90;;
15218;SDS011;15623;53.986;11.676;2022-11-14T15:28:28;93.50;;;39.10;;
15218;SDS011;15623;53.986;11.676;2022-11-14T15:30:58;92.40;;;39.23;;
15218;SDS011;15623;53.986;11.676;2022-11-14T15:33:26;93.57;;;40.83;;
15218;SDS011;15623;53.986;11.676;2022-11-14T15:36:04;91.97;;;40.33;;
15218;SDS011;15623;53.986;11.676;2022-11-14T15:38:32;88.60;;;39.40;;
15218;SDS011;15623;53.986;11.676;2022-11-14T15:43:52;84.63;;;39.07;;
15218;SDS011;15623;53.986;11.676;2022-11-14T15:46:36;94.67;;;42.00;;
15218;SDS011;15623;53.986;11.676;2022-11-14T15:49:07;91.23;;;40.23;;
15218;SDS011;15623;53.986;11.676;2022-11-14T15:51:39;90.80;;;40.73;;
15218;SDS011;15623;53.986;11.676;2022-11-14T15:54:22;96.17;;;40.63;;
15218;SDS011;15623;53.986;11.676;2022-11-14T15:56:50;96.80;;;41.47;;
15218;SDS011;15623;53.986;11.676;2022-11-14T15:59:17;91.93;;;40.47;;
15218;SDS011;15623;53.986;11.676;2022-11-14T16:01:47;86.73;;;40.77;;
15218;SDS011;15623;53.986;11.676;2022-11-14T16:04:16;88.77;;;42.20;;